Estación de Olivar Alto

Ultimos registro cada 15 minutos 54
Estación Fecha / Hora Temperatura Humedad Lluvia Velocidad Dirección Radiación Presion
54 Olivar Alto 06-05-2026 13:15 13,5 94 0,6 0,4 88 83 1018,4
53 Olivar Alto 06-05-2026 13:00 13,4 93 1,8 0 67 51 1018,5
52 Olivar Alto 06-05-2026 12:45 13,4 92 1,2 0 64 21 1018,3
51 Olivar Alto 06-05-2026 12:30 13,5 91 1,4 0,4 354 97 1017,9
50 Olivar Alto 06-05-2026 12:15 13,9 89 1 0 244 23 1018,3
49 Olivar Alto 06-05-2026 12:00 14,4 84 0,6 0,9 69 47 1017,8
48 Olivar Alto 06-05-2026 11:45 15,1 83 0 0 352 19 1017,9
47 Olivar Alto 06-05-2026 11:30 15,2 84 0,2 0 317 67 1017,3
46 Olivar Alto 06-05-2026 11:15 15 83 0 0 314 77 1017,4
45 Olivar Alto 06-05-2026 11:00 15,3 82 0 1,8 340 62 1017,1
44 Olivar Alto 06-05-2026 10:45 15,8 78 0,2 0,4 342 74 1016,9
43 Olivar Alto 06-05-2026 10:30 16,1 71 0 0 315 28 1016,4
42 Olivar Alto 06-05-2026 10:15 15,5 76 0 0,4 21 32 1016,4
41 Olivar Alto 06-05-2026 10:00 15,1 79 0 0,4 9 62 1015,9
40 Olivar Alto 06-05-2026 09:45 14,6 80 0 0,4 342 54 1016,3
39 Olivar Alto 06-05-2026 09:30 14,4 87 0 0 324 192 1016,8
38 Olivar Alto 06-05-2026 09:15 14,2 86 0,4 0 326 149 1016,9
37 Olivar Alto 06-05-2026 09:00 13,9 84 0 0 344 62 1017
36 Olivar Alto 06-05-2026 08:45 12,4 88 0 0 28 69 1016,7
35 Olivar Alto 06-05-2026 08:30 11,7 90 0 0,4 330 28 1016,8
34 Olivar Alto 06-05-2026 08:15 11,7 93 0 0 344 37 1016,5
33 Olivar Alto 06-05-2026 08:00 10,2 97 0 1,3 86 23 1016,4
32 Olivar Alto 06-05-2026 07:45 8,3 96 0 0 337 11 1016,7
31 Olivar Alto 06-05-2026 07:30 8,4 97 0 0,9 342 5 1016,5
30 Olivar Alto 06-05-2026 07:15 7,3 97 0 0 71 0 1016,2
29 Olivar Alto 06-05-2026 07:00 6,8 96 0 0 47 0 1016,4
28 Olivar Alto 06-05-2026 06:45 6,2 95 0 0 51 0 1016,1
27 Olivar Alto 06-05-2026 06:30 6,3 94 0 0 50 0 1016
26 Olivar Alto 06-05-2026 06:15 7,1 96 0 0 50 0 1015,9
25 Olivar Alto 06-05-2026 06:00 6,9 96 0 0 49 0 1015,8
24 Olivar Alto 06-05-2026 05:45 6,3 95 0 0,9 48 0 1015,5
23 Olivar Alto 06-05-2026 05:30 6 95 0 0 48 0 1015,4
22 Olivar Alto 06-05-2026 05:15 5,9 92 0 0 28 0 1015,5
21 Olivar Alto 06-05-2026 05:00 6,8 92 0 0 28 0 1015,1
20 Olivar Alto 06-05-2026 04:45 7,5 94 0 0 28 0 1015,1
19 Olivar Alto 06-05-2026 04:30 7,6 95 0 0 28 0 1015,2
18 Olivar Alto 06-05-2026 04:15 7,4 94 0 0 28 0 1015
17 Olivar Alto 06-05-2026 04:00 7,3 94 0 0 28 0 1014,8
16 Olivar Alto 06-05-2026 03:45 7,8 94 0 0 28 0 1014,9
15 Olivar Alto 06-05-2026 03:30 7,5 90 0 0 28 0 1015
14 Olivar Alto 06-05-2026 03:15 8,4 91 0 0 28 0 1015
13 Olivar Alto 06-05-2026 03:00 9,1 92 0 0 28 0 1015
12 Olivar Alto 06-05-2026 02:45 9,4 92 0 0 28 0 1014,9
11 Olivar Alto 06-05-2026 02:30 9,9 91 0 0 28 0 1015
10 Olivar Alto 06-05-2026 02:15 10,3 91 0 0 28 0 1015,2
9 Olivar Alto 06-05-2026 02:00 10,6 92 0 0 30 0 1015,3
8 Olivar Alto 06-05-2026 01:45 10,5 91 0 0 35 0 1015,4
7 Olivar Alto 06-05-2026 01:30 10,8 91 0 0 35 0 1015,5
6 Olivar Alto 06-05-2026 01:15 11,1 92 0 0 35 0 1015,6
5 Olivar Alto 06-05-2026 01:00 11 92 0 0 35 0 1015,7
4 Olivar Alto 06-05-2026 00:45 11,1 93 0 0 33 0 1015,8
3 Olivar Alto 06-05-2026 00:30 10,8 94 0 0,9 81 0 1015,7
2 Olivar Alto 06-05-2026 00:15 10,3 94 0 0 128 0 1015,9
1 Olivar Alto 06-05-2026 00:00 10,2 94 0 0 128 0 1016,1